sensor_id;sensor_type;location;lat;lon;timestamp;P1;durP1;ratioP1;P2;durP2;ratioP2
43152;SDS011;28756;49.064;9.290;2023-05-07T00:01:55;1.95;;;1.65;;
43152;SDS011;28756;49.064;9.290;2023-05-07T00:04:21;2.85;;;1.80;;
43152;SDS011;28756;49.064;9.290;2023-05-07T00:06:47;1.90;;;1.70;;
43152;SDS011;28756;49.064;9.290;2023-05-07T00:09:13;1.75;;;1.60;;
43152;SDS011;28756;49.064;9.290;2023-05-07T00:11:39;2.30;;;1.60;;
43152;SDS011;28756;49.064;9.290;2023-05-07T00:14:05;2.28;;;2.00;;
43152;SDS011;28756;49.064;9.290;2023-05-07T00:16:31;3.20;;;2.10;;
43152;SDS011;28756;49.064;9.290;2023-05-07T00:18:56;2.47;;;2.10;;
43152;SDS011;28756;49.064;9.290;2023-05-07T00:21:22;2.55;;;1.60;;
43152;SDS011;28756;49.064;9.290;2023-05-07T00:23:51;3.47;;;1.88;;
43152;SDS011;28756;49.064;9.290;2023-05-07T00:26:18;3.03;;;1.90;;
43152;SDS011;28756;49.064;9.290;2023-05-07T00:28:44;1.88;;;1.70;;
43152;SDS011;28756;49.064;9.290;2023-05-07T00:31:10;2.35;;;1.90;;
43152;SDS011;28756;49.064;9.290;2023-05-07T00:33:35;4.63;;;1.90;;
43152;SDS011;28756;49.064;9.290;2023-05-07T00:36:01;2.33;;;1.60;;
43152;SDS011;28756;49.064;9.290;2023-05-07T00:38:27;2.10;;;1.80;;
43152;SDS011;28756;49.064;9.290;2023-05-07T00:40:53;2.35;;;1.83;;
43152;SDS011;28756;49.064;9.290;2023-05-07T00:43:19;2.90;;;1.58;;
43152;SDS011;28756;49.064;9.290;2023-05-07T00:45:45;1.73;;;1.63;;
43152;SDS011;28756;49.064;9.290;2023-05-07T00:48:11;2.75;;;1.90;;
43152;SDS011;28756;49.064;9.290;2023-05-07T00:50:37;1.85;;;1.70;;
43152;SDS011;28756;49.064;9.290;2023-05-07T00:53:03;1.90;;;1.70;;
43152;SDS011;28756;49.064;9.290;2023-05-07T00:55:29;3.55;;;2.00;;
43152;SDS011;28756;49.064;9.290;2023-05-07T00:57:55;2.05;;;1.85;;
43152;SDS011;28756;49.064;9.290;2023-05-07T01:00:21;1.98;;;1.50;;
43152;SDS011;28756;49.064;9.290;2023-05-07T01:02:47;2.85;;;1.70;;
43152;SDS011;28756;49.064;9.290;2023-05-07T01:05:14;4.05;;;2.20;;
43152;SDS011;28756;49.064;9.290;2023-05-07T01:07:43;2.88;;;2.03;;
43152;SDS011;28756;49.064;9.290;2023-05-07T01:10:09;2.00;;;1.77;;
43152;SDS011;28756;49.064;9.290;2023-05-07T01:12:36;2.42;;;1.77;;
43152;SDS011;28756;49.064;9.290;2023-05-07T01:15:04;2.47;;;1.67;;
43152;SDS011;28756;49.064;9.290;2023-05-07T01:17:33;2.03;;;1.60;;
43152;SDS011;28756;49.064;9.290;2023-05-07T01:20:05;1.65;;;1.50;;
43152;SDS011;28756;49.064;9.290;2023-05-07T01:22:33;1.73;;;1.63;;
43152;SDS011;28756;49.064;9.290;2023-05-07T01:25:02;1.60;;;1.45;;
43152;SDS011;28756;49.064;9.290;2023-05-07T01:27:29;2.85;;;1.70;;
43152;SDS011;28756;49.064;9.290;2023-05-07T01:29:55;3.28;;;1.60;;
43152;SDS011;28756;49.064;9.290;2023-05-07T01:35:19;1.92;;;1.73;;
43152;SDS011;28756;49.064;9.290;2023-05-07T01:37:49;2.40;;;1.60;;
43152;SDS011;28756;49.064;9.290;2023-05-07T01:40:15;4.43;;;1.95;;
43152;SDS011;28756;49.064;9.290;2023-05-07T01:42:42;3.40;;;1.80;;
43152;SDS011;28756;49.064;9.290;2023-05-07T01:45:09;2.53;;;2.05;;
43152;SDS011;28756;49.064;9.290;2023-05-07T01:47:35;3.30;;;1.77;;
43152;SDS011;28756;49.064;9.290;2023-05-07T01:50:03;2.22;;;1.90;;
43152;SDS011;28756;49.064;9.290;2023-05-07T01:52:30;2.17;;;1.98;;
43152;SDS011;28756;49.064;9.290;2023-05-07T01:54:56;2.30;;;1.60;;
43152;SDS011;28756;49.064;9.290;2023-05-07T01:57:22;2.67;;;1.70;;
43152;SDS011;28756;49.064;9.290;2023-05-07T01:59:48;2.08;;;1.88;;
43152;SDS011;28756;49.064;9.290;2023-05-07T02:02:14;6.22;;;2.13;;
43152;SDS011;28756;49.064;9.290;2023-05-07T02:04:40;1.85;;;1.70;;
43152;SDS011;28756;49.064;9.290;2023-05-07T02:07:05;2.28;;;1.90;;
43152;SDS011;28756;49.064;9.290;2023-05-07T02:09:31;1.70;;;1.60;;
43152;SDS011;28756;49.064;9.290;2023-05-07T02:11:57;1.95;;;1.70;;
43152;SDS011;28756;49.064;9.290;2023-05-07T02:14:23;1.58;;;1.38;;
43152;SDS011;28756;49.064;9.290;2023-05-07T02:16:48;2.25;;;1.50;;
43152;SDS011;28756;49.064;9.290;2023-05-07T02:19:14;1.75;;;1.65;;
43152;SDS011;28756;49.064;9.290;2023-05-07T02:21:41;1.70;;;1.60;;
43152;SDS011;28756;49.064;9.290;2023-05-07T02:24:07;1.75;;;1.60;;
43152;SDS011;28756;49.064;9.290;2023-05-07T02:26:32;4.35;;;1.65;;
43152;SDS011;28756;49.064;9.290;2023-05-07T02:28:59;2.00;;;1.80;;
43152;SDS011;28756;49.064;9.290;2023-05-07T02:31:24;3.00;;;1.70;;
43152;SDS011;28756;49.064;9.290;2023-05-07T02:33:50;1.98;;;1.50;;
43152;SDS011;28756;49.064;9.290;2023-05-07T02:36:16;2.42;;;1.50;;
43152;SDS011;28756;49.064;9.290;2023-05-07T02:38:42;1.90;;;1.70;;
43152;SDS011;28756;49.064;9.290;2023-05-07T02:41:08;1.88;;;1.50;;
43152;SDS011;28756;49.064;9.290;2023-05-07T02:43:33;2.22;;;1.52;;
43152;SDS011;28756;49.064;9.290;2023-05-07T02:48:32;1.52;;;1.30;;
43152;SDS011;28756;49.064;9.290;2023-05-07T02:50:59;1.52;;;1.40;;
43152;SDS011;28756;49.064;9.290;2023-05-07T02:53:25;2.55;;;1.42;;
43152;SDS011;28756;49.064;9.290;2023-05-07T02:55:55;3.97;;;1.80;;
43152;SDS011;28756;49.064;9.290;2023-05-07T02:58:22;1.48;;;1.38;;
43152;SDS011;28756;49.064;9.290;2023-05-07T03:00:49;1.70;;;1.40;;
43152;SDS011;28756;49.064;9.290;2023-05-07T03:03:15;1.80;;;1.50;;
43152;SDS011;28756;49.064;9.290;2023-05-07T03:05:41;1.30;;;1.20;;
43152;SDS011;28756;49.064;9.290;2023-05-07T03:08:07;1.95;;;1.55;;
43152;SDS011;28756;49.064;9.290;2023-05-07T03:10:33;1.63;;;1.40;;
43152;SDS011;28756;49.064;9.290;2023-05-07T03:13:00;1.77;;;1.30;;
43152;SDS011;28756;49.064;9.290;2023-05-07T03:15:26;2.35;;;1.73;;
43152;SDS011;28756;49.064;9.290;2023-05-07T03:17:52;1.83;;;1.50;;
43152;SDS011;28756;49.064;9.290;2023-05-07T03:20:18;2.00;;;1.33;;
43152;SDS011;28756;49.064;9.290;2023-05-07T03:22:43;2.95;;;1.30;;
43152;SDS011;28756;49.064;9.290;2023-05-07T03:25:09;2.00;;;1.50;;
43152;SDS011;28756;49.064;9.290;2023-05-07T03:27:36;1.67;;;1.55;;
43152;SDS011;28756;49.064;9.290;2023-05-07T03:30:02;1.60;;;1.50;;
43152;SDS011;28756;49.064;9.290;2023-05-07T03:32:28;3.50;;;1.70;;
43152;SDS011;28756;49.064;9.290;2023-05-07T03:34:54;1.73;;;1.45;;
43152;SDS011;28756;49.064;9.290;2023-05-07T03:37:20;1.30;;;1.20;;
43152;SDS011;28756;49.064;9.290;2023-05-07T03:39:46;1.77;;;1.40;;
43152;SDS011;28756;49.064;9.290;2023-05-07T03:42:12;2.67;;;1.50;;
43152;SDS011;28756;49.064;9.290;2023-05-07T03:44:38;1.95;;;1.40;;
43152;SDS011;28756;49.064;9.290;2023-05-07T03:47:04;2.17;;;1.38;;
43152;SDS011;28756;49.064;9.290;2023-05-07T03:49:30;1.23;;;1.13;;
43152;SDS011;28756;49.064;9.290;2023-05-07T03:51:55;2.30;;;1.50;;
43152;SDS011;28756;49.064;9.290;2023-05-07T03:54:21;1.70;;;1.50;;
43152;SDS011;28756;49.064;9.290;2023-05-07T03:56:47;1.40;;;1.30;;
43152;SDS011;28756;49.064;9.290;2023-05-07T03:59:13;2.72;;;2.35;;
43152;SDS011;28756;49.064;9.290;2023-05-07T04:01:39;4.15;;;2.50;;
43152;SDS011;28756;49.064;9.290;2023-05-07T04:04:05;2.22;;;2.00;;
43152;SDS011;28756;49.064;9.290;2023-05-07T04:06:31;2.10;;;1.90;;
43152;SDS011;28756;49.064;9.290;2023-05-07T04:08:57;2.42;;;1.60;;
43152;SDS011;28756;49.064;9.290;2023-05-07T04:11:23;5.70;;;1.83;;
43152;SDS011;28756;49.064;9.290;2023-05-07T04:13:49;1.92;;;1.70;;
43152;SDS011;28756;49.064;9.290;2023-05-07T04:16:15;2.22;;;1.92;;
43152;SDS011;28756;49.064;9.290;2023-05-07T04:18:40;2.35;;;1.63;;
43152;SDS011;28756;49.064;9.290;2023-05-07T04:21:13;2.15;;;1.75;;
43152;SDS011;28756;49.064;9.290;2023-05-07T04:23:40;2.10;;;1.77;;
43152;SDS011;28756;49.064;9.290;2023-05-07T04:26:06;2.20;;;1.80;;
43152;SDS011;28756;49.064;9.290;2023-05-07T04:28:32;1.90;;;1.60;;
43152;SDS011;28756;49.064;9.290;2023-05-07T04:30:59;1.95;;;1.58;;
43152;SDS011;28756;49.064;9.290;2023-05-07T04:33:25;1.73;;;1.60;;
43152;SDS011;28756;49.064;9.290;2023-05-07T04:35:51;1.90;;;1.55;;
43152;SDS011;28756;49.064;9.290;2023-05-07T04:38:17;2.22;;;1.90;;
43152;SDS011;28756;49.064;9.290;2023-05-07T04:40:43;1.95;;;1.75;;
43152;SDS011;28756;49.064;9.290;2023-05-07T04:43:09;2.08;;;1.70;;
43152;SDS011;28756;49.064;9.290;2023-05-07T04:45:35;2.63;;;1.77;;
43152;SDS011;28756;49.064;9.290;2023-05-07T04:48:01;4.97;;;1.92;;
43152;SDS011;28756;49.064;9.290;2023-05-07T04:50:27;2.97;;;1.88;;
43152;SDS011;28756;49.064;9.290;2023-05-07T04:52:53;2.65;;;2.03;;
43152;SDS011;28756;49.064;9.290;2023-05-07T04:55:19;2.00;;;1.73;;
43152;SDS011;28756;49.064;9.290;2023-05-07T04:57:45;1.90;;;1.65;;
43152;SDS011;28756;49.064;9.290;2023-05-07T05:00:11;2.03;;;1.52;;
43152;SDS011;28756;49.064;9.290;2023-05-07T05:02:39;2.63;;;1.77;;
43152;SDS011;28756;49.064;9.290;2023-05-07T05:05:06;1.40;;;1.30;;
43152;SDS011;28756;49.064;9.290;2023-05-07T05:07:32;2.50;;;1.38;;
43152;SDS011;28756;49.064;9.290;2023-05-07T05:09:58;2.83;;;1.50;;
43152;SDS011;28756;49.064;9.290;2023-05-07T05:12:24;1.77;;;1.33;;
43152;SDS011;28756;49.064;9.290;2023-05-07T05:14:50;3.13;;;1.55;;
43152;SDS011;28756;49.064;9.290;2023-05-07T05:17:16;1.85;;;1.50;;
43152;SDS011;28756;49.064;9.290;2023-05-07T05:19:41;2.78;;;2.10;;
43152;SDS011;28756;49.064;9.290;2023-05-07T05:22:07;4.63;;;2.00;;
43152;SDS011;28756;49.064;9.290;2023-05-07T05:24:33;2.13;;;1.80;;
43152;SDS011;28756;49.064;9.290;2023-05-07T05:26:59;4.78;;;1.80;;
43152;SDS011;28756;49.064;9.290;2023-05-07T05:29:27;1.75;;;1.65;;
43152;SDS011;28756;49.064;9.290;2023-05-07T05:31:53;2.17;;;1.80;;
43152;SDS011;28756;49.064;9.290;2023-05-07T05:34:19;2.28;;;1.20;;
43152;SDS011;28756;49.064;9.290;2023-05-07T05:36:45;2.85;;;1.45;;
43152;SDS011;28756;49.064;9.290;2023-05-07T05:39:11;1.50;;;1.40;;
43152;SDS011;28756;49.064;9.290;2023-05-07T05:41:37;2.05;;;1.20;;
43152;SDS011;28756;49.064;9.290;2023-05-07T05:44:03;3.00;;;1.80;;
43152;SDS011;28756;49.064;9.290;2023-05-07T05:46:29;2.50;;;1.63;;
43152;SDS011;28756;49.064;9.290;2023-05-07T05:48:55;2.03;;;1.40;;
43152;SDS011;28756;49.064;9.290;2023-05-07T05:51:21;1.58;;;1.20;;
43152;SDS011;28756;49.064;9.290;2023-05-07T05:53:46;2.00;;;1.52;;
43152;SDS011;28756;49.064;9.290;2023-05-07T05:56:12;3.42;;;1.52;;
43152;SDS011;28756;49.064;9.290;2023-05-07T05:58:38;1.88;;;1.40;;
43152;SDS011;28756;49.064;9.290;2023-05-07T06:01:04;2.10;;;1.55;;
43152;SDS011;28756;49.064;9.290;2023-05-07T06:03:30;2.85;;;1.58;;
43152;SDS011;28756;49.064;9.290;2023-05-07T06:05:57;1.60;;;1.50;;
43152;SDS011;28756;49.064;9.290;2023-05-07T06:08:24;2.00;;;1.80;;
43152;SDS011;28756;49.064;9.290;2023-05-07T06:10:51;2.03;;;1.70;;
43152;SDS011;28756;49.064;9.290;2023-05-07T06:13:17;1.73;;;1.40;;
43152;SDS011;28756;49.064;9.290;2023-05-07T06:15:42;2.63;;;1.40;;
43152;SDS011;28756;49.064;9.290;2023-05-07T06:18:08;2.38;;;1.50;;
43152;SDS011;28756;49.064;9.290;2023-05-07T06:20:34;1.58;;;1.30;;
43152;SDS011;28756;49.064;9.290;2023-05-07T06:23:00;1.90;;;1.50;;
43152;SDS011;28756;49.064;9.290;2023-05-07T06:25:25;1.65;;;1.50;;
43152;SDS011;28756;49.064;9.290;2023-05-07T06:27:51;1.77;;;1.55;;
43152;SDS011;28756;49.064;9.290;2023-05-07T06:30:17;2.10;;;1.52;;
43152;SDS011;28756;49.064;9.290;2023-05-07T06:32:42;1.77;;;1.67;;
43152;SDS011;28756;49.064;9.290;2023-05-07T06:35:08;2.05;;;1.60;;
43152;SDS011;28756;49.064;9.290;2023-05-07T06:37:34;2.05;;;1.70;;
43152;SDS011;28756;49.064;9.290;2023-05-07T06:40:03;1.80;;;1.70;;
43152;SDS011;28756;49.064;9.290;2023-05-07T06:42:31;4.53;;;1.90;;
43152;SDS011;28756;49.064;9.290;2023-05-07T06:44:56;2.17;;;1.65;;
43152;SDS011;28756;49.064;9.290;2023-05-07T06:47:22;2.08;;;1.52;;
43152;SDS011;28756;49.064;9.290;2023-05-07T06:49:48;3.80;;;1.63;;
43152;SDS011;28756;49.064;9.290;2023-05-07T06:52:13;2.42;;;1.80;;
43152;SDS011;28756;49.064;9.290;2023-05-07T06:54:39;1.90;;;1.50;;
43152;SDS011;28756;49.064;9.290;2023-05-07T06:57:05;1.70;;;1.60;;
43152;SDS011;28756;49.064;9.290;2023-05-07T06:59:31;1.63;;;1.45;;
43152;SDS011;28756;49.064;9.290;2023-05-07T07:01:56;1.92;;;1.40;;
43152;SDS011;28756;49.064;9.290;2023-05-07T07:04:22;1.30;;;1.20;;
43152;SDS011;28756;49.064;9.290;2023-05-07T07:06:49;1.75;;;1.27;;
43152;SDS011;28756;49.064;9.290;2023-05-07T07:09:16;1.48;;;1.38;;
43152;SDS011;28756;49.064;9.290;2023-05-07T07:11:42;1.40;;;1.30;;
43152;SDS011;28756;49.064;9.290;2023-05-07T07:14:08;1.77;;;1.40;;
43152;SDS011;28756;49.064;9.290;2023-05-07T07:16:33;2.25;;;1.27;;
43152;SDS011;28756;49.064;9.290;2023-05-07T07:18:59;1.50;;;1.15;;
43152;SDS011;28756;49.064;9.290;2023-05-07T07:21:25;2.38;;;1.17;;
43152;SDS011;28756;49.064;9.290;2023-05-07T07:23:51;1.88;;;1.20;;
43152;SDS011;28756;49.064;9.290;2023-05-07T07:26:17;1.02;;;0.95;;
43152;SDS011;28756;49.064;9.290;2023-05-07T07:28:43;1.38;;;1.00;;
43152;SDS011;28756;49.064;9.290;2023-05-07T07:31:12;1.88;;;1.20;;
43152;SDS011;28756;49.064;9.290;2023-05-07T07:33:38;1.85;;;1.10;;
43152;SDS011;28756;49.064;9.290;2023-05-07T07:36:05;1.90;;;1.20;;
43152;SDS011;28756;49.064;9.290;2023-05-07T07:38:32;1.17;;;1.00;;
43152;SDS011;28756;49.064;9.290;2023-05-07T07:40:58;1.15;;;1.00;;
43152;SDS011;28756;49.064;9.290;2023-05-07T07:43:25;2.47;;;1.05;;
43152;SDS011;28756;49.064;9.290;2023-05-07T07:45:51;1.38;;;1.00;;
43152;SDS011;28756;49.064;9.290;2023-05-07T07:48:16;2.10;;;1.30;;
43152;SDS011;28756;49.064;9.290;2023-05-07T07:50:42;2.50;;;1.00;;
43152;SDS011;28756;49.064;9.290;2023-05-07T07:53:08;1.10;;;1.00;;
43152;SDS011;28756;49.064;9.290;2023-05-07T07:55:37;1.10;;;1.00;;
43152;SDS011;28756;49.064;9.290;2023-05-07T07:58:05;2.30;;;0.90;;
43152;SDS011;28756;49.064;9.290;2023-05-07T08:00:30;2.70;;;1.00;;
43152;SDS011;28756;49.064;9.290;2023-05-07T08:02:56;1.17;;;0.80;;
43152;SDS011;28756;49.064;9.290;2023-05-07T08:05:22;1.23;;;0.90;;
43152;SDS011;28756;49.064;9.290;2023-05-07T08:07:48;1.40;;;1.00;;
43152;SDS011;28756;49.064;9.290;2023-05-07T08:10:18;2.95;;;0.90;;
43152;SDS011;28756;49.064;9.290;2023-05-07T08:12:47;1.10;;;0.80;;
43152;SDS011;28756;49.064;9.290;2023-05-07T08:15:14;1.20;;;0.90;;
43152;SDS011;28756;49.064;9.290;2023-05-07T08:17:40;1.10;;;0.70;;
43152;SDS011;28756;49.064;9.290;2023-05-07T08:20:07;0.82;;;0.80;;
43152;SDS011;28756;49.064;9.290;2023-05-07T08:22:34;1.90;;;0.80;;
43152;SDS011;28756;49.064;9.290;2023-05-07T08:25:00;1.23;;;0.70;;
43152;SDS011;28756;49.064;9.290;2023-05-07T08:27:27;1.67;;;0.63;;
43152;SDS011;28756;49.064;9.290;2023-05-07T08:29:53;1.20;;;0.80;;
43152;SDS011;28756;49.064;9.290;2023-05-07T08:32:19;1.20;;;0.75;;
43152;SDS011;28756;49.064;9.290;2023-05-07T08:34:46;1.00;;;0.80;;
43152;SDS011;28756;49.064;9.290;2023-05-07T08:37:12;1.38;;;0.90;;
43152;SDS011;28756;49.064;9.290;2023-05-07T08:39:38;0.80;;;0.70;;
43152;SDS011;28756;49.064;9.290;2023-05-07T08:42:04;1.15;;;1.05;;
43152;SDS011;28756;49.064;9.290;2023-05-07T08:44:34;1.67;;;0.80;;
43152;SDS011;28756;49.064;9.290;2023-05-07T08:47:00;2.78;;;0.82;;
43152;SDS011;28756;49.064;9.290;2023-05-07T08:49:27;1.48;;;0.80;;
43152;SDS011;28756;49.064;9.290;2023-05-07T08:51:53;1.65;;;0.85;;
43152;SDS011;28756;49.064;9.290;2023-05-07T08:54:21;1.25;;;0.70;;
43152;SDS011;28756;49.064;9.290;2023-05-07T08:56:47;2.13;;;0.80;;
43152;SDS011;28756;49.064;9.290;2023-05-07T08:59:13;0.80;;;0.70;;
43152;SDS011;28756;49.064;9.290;2023-05-07T09:01:39;1.00;;;0.70;;
43152;SDS011;28756;49.064;9.290;2023-05-07T09:04:05;0.90;;;0.70;;
43152;SDS011;28756;49.064;9.290;2023-05-07T09:06:33;2.35;;;0.70;;
43152;SDS011;28756;49.064;9.290;2023-05-07T09:08:59;1.00;;;0.80;;
43152;SDS011;28756;49.064;9.290;2023-05-07T09:11:26;1.48;;;0.70;;
43152;SDS011;28756;49.064;9.290;2023-05-07T09:13:55;1.25;;;0.70;;
43152;SDS011;28756;49.064;9.290;2023-05-07T09:16:27;1.00;;;0.70;;
43152;SDS011;28756;49.064;9.290;2023-05-07T09:18:56;1.73;;;1.00;;
43152;SDS011;28756;49.064;9.290;2023-05-07T09:21:24;1.08;;;0.75;;
43152;SDS011;28756;49.064;9.290;2023-05-07T09:23:51;1.23;;;0.90;;
43152;SDS011;28756;49.064;9.290;2023-05-07T09:26:18;2.35;;;0.80;;
43152;SDS011;28756;49.064;9.290;2023-05-07T09:28:46;1.67;;;0.70;;
43152;SDS011;28756;49.064;9.290;2023-05-07T09:31:12;0.82;;;0.73;;
43152;SDS011;28756;49.064;9.290;2023-05-07T09:33:38;0.98;;;0.70;;
43152;SDS011;28756;49.064;9.290;2023-05-07T09:36:05;1.02;;;0.80;;
43152;SDS011;28756;49.064;9.290;2023-05-07T09:38:33;1.40;;;0.82;;
43152;SDS011;28756;49.064;9.290;2023-05-07T09:43:38;2.03;;;0.88;;
43152;SDS011;28756;49.064;9.290;2023-05-07T09:46:15;0.75;;;0.60;;
43152;SDS011;28756;49.064;9.290;2023-05-07T09:48:42;0.95;;;0.60;;
43152;SDS011;28756;49.064;9.290;2023-05-07T09:51:33;1.00;;;0.80;;
43152;SDS011;28756;49.064;9.290;2023-05-07T09:54:03;3.58;;;0.77;;
43152;SDS011;28756;49.064;9.290;2023-05-07T09:56:31;0.90;;;0.75;;
43152;SDS011;28756;49.064;9.290;2023-05-07T09:58:58;0.85;;;0.80;;
43152;SDS011;28756;49.064;9.290;2023-05-07T10:01:25;1.50;;;0.63;;
43152;SDS011;28756;49.064;9.290;2023-05-07T10:03:52;1.38;;;0.50;;
43152;SDS011;28756;49.064;9.290;2023-05-07T10:06:20;1.10;;;0.65;;
43152;SDS011;28756;49.064;9.290;2023-05-07T10:08:46;1.58;;;0.90;;
43152;SDS011;28756;49.064;9.290;2023-05-07T10:11:13;1.17;;;0.75;;
43152;SDS011;28756;49.064;9.290;2023-05-07T10:13:41;1.17;;;0.80;;
43152;SDS011;28756;49.064;9.290;2023-05-07T10:16:07;2.20;;;0.80;;
43152;SDS011;28756;49.064;9.290;2023-05-07T10:18:33;1.60;;;0.80;;
43152;SDS011;28756;49.064;9.290;2023-05-07T10:21:10;1.13;;;0.75;;
43152;SDS011;28756;49.064;9.290;2023-05-07T10:23:44;1.02;;;0.70;;
43152;SDS011;28756;49.064;9.290;2023-05-07T10:26:14;1.45;;;0.80;;
43152;SDS011;28756;49.064;9.290;2023-05-07T10:28:43;0.90;;;0.70;;
43152;SDS011;28756;49.064;9.290;2023-05-07T10:31:17;0.70;;;0.63;;
43152;SDS011;28756;49.064;9.290;2023-05-07T10:34:02;1.80;;;0.75;;
43152;SDS011;28756;49.064;9.290;2023-05-07T10:36:38;1.85;;;0.70;;
43152;SDS011;28756;49.064;9.290;2023-05-07T10:39:04;1.25;;;0.90;;
43152;SDS011;28756;49.064;9.290;2023-05-07T10:41:31;1.30;;;0.80;;
43152;SDS011;28756;49.064;9.290;2023-05-07T10:43:57;1.02;;;0.77;;
43152;SDS011;28756;49.064;9.290;2023-05-07T10:46:26;0.80;;;0.60;;
43152;SDS011;28756;49.064;9.290;2023-05-07T10:51:27;1.42;;;0.80;;
43152;SDS011;28756;49.064;9.290;2023-05-07T10:56:39;0.85;;;0.75;;
43152;SDS011;28756;49.064;9.290;2023-05-07T11:01:53;3.45;;;1.00;;
43152;SDS011;28756;49.064;9.290;2023-05-07T11:04:20;1.17;;;0.80;;
43152;SDS011;28756;49.064;9.290;2023-05-07T11:09:53;1.45;;;0.90;;
43152;SDS011;28756;49.064;9.290;2023-05-07T11:15:04;1.88;;;0.70;;
43152;SDS011;28756;49.064;9.290;2023-05-07T11:17:33;1.40;;;0.90;;
43152;SDS011;28756;49.064;9.290;2023-05-07T11:20:00;1.63;;;0.70;;
43152;SDS011;28756;49.064;9.290;2023-05-07T11:24:56;0.80;;;0.68;;
43152;SDS011;28756;49.064;9.290;2023-05-07T11:27:25;1.70;;;0.90;;
43152;SDS011;28756;49.064;9.290;2023-05-07T11:29:52;0.80;;;0.70;;
43152;SDS011;28756;49.064;9.290;2023-05-07T11:34:56;1.10;;;1.00;;
43152;SDS011;28756;49.064;9.290;2023-05-07T11:37:23;1.27;;;0.80;;
43152;SDS011;28756;49.064;9.290;2023-05-07T11:39:51;1.33;;;0.80;;
43152;SDS011;28756;49.064;9.290;2023-05-07T11:42:33;1.80;;;1.05;;
43152;SDS011;28756;49.064;9.290;2023-05-07T11:45:02;1.13;;;0.80;;
43152;SDS011;28756;49.064;9.290;2023-05-07T11:47:30;0.90;;;0.77;;
43152;SDS011;28756;49.064;9.290;2023-05-07T11:49:57;2.42;;;0.90;;
43152;SDS011;28756;49.064;9.290;2023-05-07T11:52:32;1.75;;;0.73;;
43152;SDS011;28756;49.064;9.290;2023-05-07T11:55:00;1.70;;;0.80;;
43152;SDS011;28756;49.064;9.290;2023-05-07T11:57:28;1.40;;;0.82;;
43152;SDS011;28756;49.064;9.290;2023-05-07T11:59:54;1.52;;;0.80;;
43152;SDS011;28756;49.064;9.290;2023-05-07T12:02:24;2.33;;;0.85;;
43152;SDS011;28756;49.064;9.290;2023-05-07T12:04:51;2.10;;;0.90;;
43152;SDS011;28756;49.064;9.290;2023-05-07T12:07:18;0.98;;;0.75;;
43152;SDS011;28756;49.064;9.290;2023-05-07T12:09:44;3.15;;;0.90;;
43152;SDS011;28756;49.064;9.290;2023-05-07T12:12:11;1.35;;;0.85;;
43152;SDS011;28756;49.064;9.290;2023-05-07T12:14:38;1.42;;;0.80;;
43152;SDS011;28756;49.064;9.290;2023-05-07T12:17:09;1.77;;;0.70;;
43152;SDS011;28756;49.064;9.290;2023-05-07T12:19:39;1.75;;;0.80;;
43152;SDS011;28756;49.064;9.290;2023-05-07T12:22:08;1.10;;;0.70;;
43152;SDS011;28756;49.064;9.290;2023-05-07T12:24:48;0.80;;;0.80;;
43152;SDS011;28756;49.064;9.290;2023-05-07T12:27:21;0.90;;;0.80;;
43152;SDS011;28756;49.064;9.290;2023-05-07T12:29:48;2.10;;;0.85;;
43152;SDS011;28756;49.064;9.290;2023-05-07T12:32:19;1.38;;;0.55;;
43152;SDS011;28756;49.064;9.290;2023-05-07T12:34:49;4.57;;;0.73;;
43152;SDS011;28756;49.064;9.290;2023-05-07T12:37:16;0.80;;;0.73;;
43152;SDS011;28756;49.064;9.290;2023-05-07T12:39:47;1.17;;;0.80;;
43152;SDS011;28756;49.064;9.290;2023-05-07T12:42:14;0.80;;;0.80;;
43152;SDS011;28756;49.064;9.290;2023-05-07T12:44:45;1.40;;;1.08;;
43152;SDS011;28756;49.064;9.290;2023-05-07T12:47:11;1.17;;;0.70;;
43152;SDS011;28756;49.064;9.290;2023-05-07T12:49:37;0.98;;;0.65;;
43152;SDS011;28756;49.064;9.290;2023-05-07T12:52:05;1.02;;;0.85;;
43152;SDS011;28756;49.064;9.290;2023-05-07T12:54:34;1.45;;;0.95;;
43152;SDS011;28756;49.064;9.290;2023-05-07T12:57:09;1.05;;;0.70;;
43152;SDS011;28756;49.064;9.290;2023-05-07T12:59:39;0.95;;;0.80;;
43152;SDS011;28756;49.064;9.290;2023-05-07T13:02:06;0.95;;;0.75;;
43152;SDS011;28756;49.064;9.290;2023-05-07T13:04:34;0.77;;;0.60;;
43152;SDS011;28756;49.064;9.290;2023-05-07T13:07:00;1.70;;;0.80;;
43152;SDS011;28756;49.064;9.290;2023-05-07T13:09:26;0.70;;;0.70;;
43152;SDS011;28756;49.064;9.290;2023-05-07T13:11:54;0.88;;;0.70;;
43152;SDS011;28756;49.064;9.290;2023-05-07T13:14:20;1.35;;;0.80;;
43152;SDS011;28756;49.064;9.290;2023-05-07T13:16:49;1.27;;;0.60;;
43152;SDS011;28756;49.064;9.290;2023-05-07T13:19:15;0.95;;;0.68;;
43152;SDS011;28756;49.064;9.290;2023-05-07T13:21:41;0.70;;;0.60;;
43152;SDS011;28756;49.064;9.290;2023-05-07T13:24:07;1.17;;;0.80;;
43152;SDS011;28756;49.064;9.290;2023-05-07T13:26:33;0.70;;;0.50;;
43152;SDS011;28756;49.064;9.290;2023-05-07T13:28:58;1.35;;;0.80;;
43152;SDS011;28756;49.064;9.290;2023-05-07T13:31:24;1.30;;;0.60;;
43152;SDS011;28756;49.064;9.290;2023-05-07T13:33:50;1.15;;;0.60;;
43152;SDS011;28756;49.064;9.290;2023-05-07T13:36:17;1.08;;;0.82;;
43152;SDS011;28756;49.064;9.290;2023-05-07T13:38:43;1.15;;;0.88;;
43152;SDS011;28756;49.064;9.290;2023-05-07T13:41:09;1.98;;;0.80;;
43152;SDS011;28756;49.064;9.290;2023-05-07T13:43:35;1.75;;;1.00;;
43152;SDS011;28756;49.064;9.290;2023-05-07T13:46:00;2.03;;;1.10;;
43152;SDS011;28756;49.064;9.290;2023-05-07T13:48:26;3.63;;;1.05;;
43152;SDS011;28756;49.064;9.290;2023-05-07T13:50:53;3.75;;;1.33;;
43152;SDS011;28756;49.064;9.290;2023-05-07T13:53:19;4.63;;;1.55;;
43152;SDS011;28756;49.064;9.290;2023-05-07T13:55:45;6.82;;;2.17;;
43152;SDS011;28756;49.064;9.290;2023-05-07T13:58:10;6.03;;;1.80;;
43152;SDS011;28756;49.064;9.290;2023-05-07T14:00:36;4.05;;;1.20;;
43152;SDS011;28756;49.064;9.290;2023-05-07T14:03:03;1.90;;;1.10;;
43152;SDS011;28756;49.064;9.290;2023-05-07T14:05:30;1.70;;;1.10;;
43152;SDS011;28756;49.064;9.290;2023-05-07T14:07:59;1.65;;;1.10;;
43152;SDS011;28756;49.064;9.290;2023-05-07T14:10:25;1.30;;;1.00;;
43152;SDS011;28756;49.064;9.290;2023-05-07T14:12:51;2.47;;;1.02;;
43152;SDS011;28756;49.064;9.290;2023-05-07T14:15:17;1.52;;;1.00;;
43152;SDS011;28756;49.064;9.290;2023-05-07T14:17:43;1.40;;;0.90;;
43152;SDS011;28756;49.064;9.290;2023-05-07T14:20:10;1.17;;;0.98;;
43152;SDS011;28756;49.064;9.290;2023-05-07T14:22:37;0.85;;;0.80;;
43152;SDS011;28756;49.064;9.290;2023-05-07T14:25:03;1.02;;;0.88;;
43152;SDS011;28756;49.064;9.290;2023-05-07T14:27:29;1.50;;;1.00;;
43152;SDS011;28756;49.064;9.290;2023-05-07T14:29:55;0.75;;;0.68;;
43152;SDS011;28756;49.064;9.290;2023-05-07T14:32:21;1.40;;;1.08;;
43152;SDS011;28756;49.064;9.290;2023-05-07T14:34:47;1.10;;;1.00;;
43152;SDS011;28756;49.064;9.290;2023-05-07T14:37:13;1.67;;;1.00;;
43152;SDS011;28756;49.064;9.290;2023-05-07T14:39:39;1.23;;;0.90;;
43152;SDS011;28756;49.064;9.290;2023-05-07T14:42:05;1.30;;;0.90;;
43152;SDS011;28756;49.064;9.290;2023-05-07T14:44:32;1.67;;;0.93;;
43152;SDS011;28756;49.064;9.290;2023-05-07T14:47:01;1.70;;;0.98;;
43152;SDS011;28756;49.064;9.290;2023-05-07T14:49:27;4.70;;;1.40;;
43152;SDS011;28756;49.064;9.290;2023-05-07T14:51:53;4.10;;;1.00;;
43152;SDS011;28756;49.064;9.290;2023-05-07T14:54:19;1.13;;;1.00;;
43152;SDS011;28756;49.064;9.290;2023-05-07T14:56:45;2.40;;;1.10;;
43152;SDS011;28756;49.064;9.290;2023-05-07T14:59:11;3.40;;;1.20;;
43152;SDS011;28756;49.064;9.290;2023-05-07T15:01:37;1.83;;;1.00;;
43152;SDS011;28756;49.064;9.290;2023-05-07T15:04:05;2.30;;;1.00;;
43152;SDS011;28756;49.064;9.290;2023-05-07T15:06:31;2.45;;;0.90;;
43152;SDS011;28756;49.064;9.290;2023-05-07T15:08:57;2.15;;;1.10;;
43152;SDS011;28756;49.064;9.290;2023-05-07T15:11:23;2.78;;;1.35;;
43152;SDS011;28756;49.064;9.290;2023-05-07T15:13:49;1.67;;;1.10;;